Time;durP1;ratioP1;P1;durP2;ratioP2;P2;SDS_P1;SDS_P2;PMS_P1;PMS_P2;Temp;Humidity;BMP_temperature;BMP_pressure;BME280_temperature;BME280_humidity;BME280_pressure;Samples;Min_cycle;Max_cycle;Signal;HPM_P1;HPM_P2
2023/06/26 00:01:30;;;;;;;21.95;8.73;;;;;;;23.57;61.65;100506.75;5036145;28;20036;-70
2023/06/26 00:03:57;;;;;;;21.63;8.50;;;;;;;23.55;61.64;100505.97;5018761;28;20127;-70
2023/06/26 00:06:24;;;;;;;18.50;8.07;;;;;;;23.50;61.78;100498.16;5036301;28;20139;-70
2023/06/26 00:08:50;;;;;;;17.88;8.35;;;;;;;23.49;61.79;100497.28;5035943;28;20029;-70
2023/06/26 00:11:16;;;;;;;20.63;9.10;;;;;;;23.45;61.97;100503.78;5041260;28;20048;-70
2023/06/26 00:13:41;;;;;;;21.40;8.30;;;;;;;23.47;61.84;100504.56;5040262;28;20116;-71
2023/06/26 00:16:07;;;;;;;18.70;8.45;;;;;;;23.47;61.71;100509.06;5039776;28;20029;-71
2023/06/26 00:18:32;;;;;;;19.43;8.07;;;;;;;23.42;61.81;100500.41;5022114;28;20515;-71
2023/06/26 00:20:58;;;;;;;17.50;7.77;;;;;;;23.42;61.53;100501.25;5040088;28;20025;-70
2023/06/26 00:23:23;;;;;;;15.80;8.00;;;;;;;23.41;61.75;100499.53;5039690;28;20291;-70
2023/06/26 00:25:48;;;;;;;18.73;8.23;;;;;;;23.40;61.79;100500.47;5039999;28;20130;-70
2023/06/26 00:28:14;;;;;;;17.37;8.10;;;;;;;23.34;61.53;100496.28;5040152;28;20470;-71
2023/06/26 00:30:39;;;;;;;20.23;7.83;;;;;;;23.33;61.66;100499.06;5022075;28;20075;-70
2023/06/26 00:33:04;;;;;;;17.00;7.88;;;;;;;23.34;61.74;100493.59;5039927;28;20031;-71
2023/06/26 00:35:30;;;;;;;16.93;7.80;;;;;;;23.37;61.66;100493.44;5022181;28;20029;-70
2023/06/26 00:37:55;;;;;;;15.77;7.93;;;;;;;23.40;61.57;100497.78;5039646;28;20478;-71
2023/06/26 00:40:21;;;;;;;19.37;7.73;;;;;;;23.44;61.24;100495.81;5039748;28;20085;-70
2023/06/26 00:42:46;;;;;;;17.30;7.95;;;;;;;23.43;61.44;100492.25;5039841;28;20394;-70
2023/06/26 00:45:12;;;;;;;19.37;7.43;;;;;;;23.42;61.34;100484.28;5039568;28;20040;-70
2023/06/26 00:47:37;;;;;;;17.83;7.83;;;;;;;23.43;61.44;100494.06;5021682;28;20049;-71
2023/06/26 00:50:04;;;;;;;15.30;7.60;;;;;;;23.43;61.59;100497.63;5039549;28;20064;-70
2023/06/26 00:52:29;;;;;;;15.00;7.78;;;;;;;23.43;61.06;100492.25;5039729;28;20059;-70
2023/06/26 00:54:56;;;;;;;16.60;7.77;;;;;;;23.45;61.19;100490.34;5039294;28;20113;-70
2023/06/26 00:57:21;;;;;;;16.95;7.75;;;;;;;23.47;60.88;100492.94;5047956;28;20022;-70
2023/06/26 00:59:47;;;;;;;16.10;7.17;;;;;;;23.48;60.92;100490.16;5039364;28;21093;-71
2023/06/26 01:02:19;;;;;;;18.65;7.88;;;;;;;23.49;60.76;100486.53;5021651;28;20026;-70
2023/06/26 01:04:49;;;;;;;16.10;7.78;;;;;;;23.47;60.97;100485.75;5039174;28;20065;-71
2023/06/26 01:07:18;;;;;;;18.63;8.37;;;;;;;23.51;60.94;100483.75;5039560;28;20030;-68
2023/06/26 01:09:46;;;;;;;15.93;8.07;;;;;;;23.50;60.68;100482.03;5039635;28;20033;-68
2023/06/26 01:12:11;;;;;;;16.65;7.65;;;;;;;23.47;60.95;100479.50;5046345;28;20029;-68
2023/06/26 01:14:37;;;;;;;17.20;7.83;;;;;;;23.43;61.13;100478.81;5039193;28;20135;-68
2023/06/26 01:17:03;;;;;;;17.60;8.85;;;;;;;23.36;61.22;100478.25;5020970;28;20032;-68
2023/06/26 01:19:31;;;;;;;15.88;8.20;;;;;;;23.36;61.49;100488.16;5039174;28;20034;-68
2023/06/26 01:22:21;;;;;;;16.77;7.63;;;;;;;23.27;62.00;100481.47;5020890;28;20167;-70
2023/06/26 01:25:38;;;;;;;15.88;8.13;;;;;;;23.19;62.15;100484.53;5032538;28;20453;-70
2023/06/26 01:28:05;;;;;;;18.10;8.73;;;;;;;23.14;62.14;100489.28;5012349;28;20046;-70
2023/06/26 01:30:32;;;;;;;19.67;8.02;;;;;;;23.14;62.30;100489.28;5038996;28;20040;-70
2023/06/26 01:32:58;;;;;;;15.43;7.97;;;;;;;23.10;62.60;100479.66;5038808;28;20457;-70
2023/06/26 01:35:25;;;;;;;15.43;7.80;;;;;;;23.08;62.51;100482.41;5038801;28;20029;-70
2023/06/26 01:37:50;;;;;;;16.98;8.10;;;;;;;23.05;62.90;100487.09;5038641;28;20029;-71
2023/06/26 01:40:15;;;;;;;15.73;8.07;;;;;;;23.05;62.90;100487.94;5038484;28;20044;-70
2023/06/26 01:42:41;;;;;;;17.35;8.32;;;;;;;23.07;63.15;100487.88;5038614;28;20061;-71
2023/06/26 01:45:19;;;;;;;19.70;7.97;;;;;;;23.06;63.43;100491.50;5020729;28;20037;-70
2023/06/26 01:47:50;;;;;;;18.38;7.97;;;;;;;23.09;63.09;100492.19;5038534;28;20046;-70
2023/06/26 01:50:24;;;;;;;17.65;8.32;;;;;;;23.08;63.38;100492.31;5020602;28;20025;-70
2023/06/26 01:53:11;;;;;;;19.08;7.88;;;;;;;23.09;63.21;100499.41;5038248;28;20026;-70
2023/06/26 01:56:01;;;;;;;17.97;8.10;;;;;;;23.15;63.09;100499.06;5043289;28;20059;-70
2023/06/26 01:58:28;;;;;;;18.30;8.63;;;;;;;23.22;62.88;100487.03;5038476;28;20425;-70
2023/06/26 02:00:54;;;;;;;20.20;8.10;;;;;;;23.23;63.11;100502.19;5020480;28;20029;-70
2023/06/26 02:03:20;;;;;;;17.73;8.18;;;;;;;23.22;63.26;100492.41;5037942;28;20516;-71
2023/06/26 02:05:45;;;;;;;19.53;8.40;;;;;;;23.23;63.07;100491.47;5038187;28;20028;-71
2023/06/26 02:08:14;;;;;;;18.48;8.52;;;;;;;23.22;63.28;100488.88;5038004;28;20028;-71
2023/06/26 02:10:39;;;;;;;18.38;7.90;;;;;;;23.18;63.27;100487.31;5028588;28;20400;-70
2023/06/26 02:13:04;;;;;;;17.10;8.33;;;;;;;23.15;63.41;100491.00;5038082;28;20028;-70
2023/06/26 02:15:30;;;;;;;19.77;7.97;;;;;;;23.15;63.62;100493.69;5037912;28;20017;-70
2023/06/26 02:17:55;;;;;;;19.40;7.93;;;;;;;23.14;63.85;100493.75;5020120;28;20052;-70
2023/06/26 02:20:20;;;;;;;20.17;8.57;;;;;;;23.14;63.72;100486.59;5020154;28;20071;-70
2023/06/26 02:22:46;;;;;;;19.17;7.83;;;;;;;23.13;63.69;100492.91;5037817;28;20029;-70
2023/06/26 02:25:12;;;;;;;14.82;7.50;;;;;;;23.16;63.59;100495.44;5037647;28;20109;-70
2023/06/26 02:27:38;;;;;;;18.73;7.30;;;;;;;23.19;63.49;100481.84;5037684;28;20033;-70
2023/06/26 02:30:04;;;;;;;20.35;8.20;;;;;;;23.19;63.68;100483.66;5037657;28;20163;-70
2023/06/26 02:32:29;;;;;;;16.75;8.10;;;;;;;23.14;63.76;100486.59;5036938;28;20466;-70
2023/06/26 02:34:54;;;;;;;15.97;8.63;;;;;;;23.03;64.22;100483.59;5019982;28;20109;-71
2023/06/26 02:37:20;;;;;;;17.60;8.20;;;;;;;22.96;64.68;100485.75;5037522;28;20063;-70
2023/06/26 02:39:45;;;;;;;18.53;7.80;;;;;;;22.91;64.45;100485.13;5037393;28;20030;-71
2023/06/26 02:42:11;;;;;;;18.38;8.65;;;;;;;22.89;64.57;100482.53;5037441;28;20085;-70
2023/06/26 02:44:37;;;;;;;19.50;8.63;;;;;;;22.87;64.81;100476.38;5037462;28;20378;-70
2023/06/26 02:47:03;;;;;;;16.48;7.72;;;;;;;22.88;64.82;100479.91;5037281;28;20040;-71
2023/06/26 02:49:28;;;;;;;19.23;8.30;;;;;;;22.90;64.92;100484.25;5037723;28;20347;-71
2023/06/26 02:51:53;;;;;;;18.55;8.25;;;;;;;22.89;65.06;100474.47;5037026;28;20022;-70
2023/06/26 02:54:19;;;;;;;18.50;8.53;;;;;;;22.87;65.04;100470.09;5037166;28;20394;-70
2023/06/26 02:56:44;;;;;;;17.73;7.70;;;;;;;22.84;65.10;100468.47;5045856;28;20052;-70
2023/06/26 02:59:10;;;;;;;21.80;9.53;;;;;;;22.81;65.47;100465.94;5036970;28;20032;-71
2023/06/26 03:01:36;;;;;;;20.23;8.17;;;;;;;22.77;65.51;100464.34;5036947;28;20328;-70
2023/06/26 03:04:02;;;;;;;23.37;9.47;;;;;;;22.71;65.81;100468.25;5037345;28;20028;-70
2023/06/26 03:06:27;;;;;;;20.67;9.30;;;;;;;22.67;66.08;100474.72;5037014;28;20088;-71
2023/06/26 03:08:53;;;;;;;17.20;8.35;;;;;;;22.65;66.08;100474.78;5036820;28;20590;-71
2023/06/26 03:11:19;;;;;;;15.33;8.60;;;;;;;22.65;66.33;100479.28;5028093;28;20141;-70
2023/06/26 03:13:44;;;;;;;21.15;8.77;;;;;;;22.66;66.13;100481.00;5037099;28;20029;-70
2023/06/26 03:16:10;;;;;;;18.83;8.50;;;;;;;22.67;66.10;100480.09;5036661;28;20064;-70
2023/06/26 03:18:35;;;;;;;20.43;8.30;;;;;;;22.65;66.26;100482.84;5036815;28;20075;-70
2023/06/26 03:21:01;;;;;;;20.05;9.05;;;;;;;22.62;66.35;100488.38;5036900;28;20021;-70
2023/06/26 03:23:26;;;;;;;21.90;8.90;;;;;;;22.55;66.46;100480.69;5036550;28;20729;-71
2023/06/26 03:25:53;;;;;;;20.67;9.10;;;;;;;22.54;66.48;100490.56;5036755;28;20172;-70
2023/06/26 03:28:18;;;;;;;20.00;9.52;;;;;;;22.54;66.71;100481.66;5036940;28;20077;-70
2023/06/26 03:30:44;;;;;;;21.90;8.93;;;;;;;22.55;66.64;100491.44;5036507;28;20377;-70
2023/06/26 03:33:09;;;;;;;19.80;9.15;;;;;;;22.56;66.64;100491.38;5036741;28;20428;-70
2023/06/26 03:35:35;;;;;;;19.27;9.33;;;;;;;22.57;66.58;100487.75;5036701;28;20030;-71
2023/06/26 03:38:01;;;;;;;20.67;10.00;;;;;;;22.56;66.58;100485.13;5036437;28;20102;-70
2023/06/26 03:40:26;;;;;;;18.05;9.40;;;;;;;22.58;66.38;100483.22;5036539;28;20449;-70
2023/06/26 03:42:52;;;;;;;18.70;8.17;;;;;;;22.63;66.31;100481.16;5036481;28;20068;-71
2023/06/26 03:45:19;;;;;;;18.80;8.70;;;;;;;22.67;66.43;100492.63;5036345;28;20026;-70
2023/06/26 03:47:46;;;;;;;18.30;8.90;;;;;;;22.70;66.48;100497.84;5036576;28;20510;-70
2023/06/26 03:50:12;;;;;;;21.80;9.33;;;;;;;22.72;66.01;100494.13;5036485;28;20067;-71
2023/06/26 03:52:37;;;;;;;22.15;8.75;;;;;;;22.72;66.21;100490.56;5036539;28;20026;-71
2023/06/26 03:55:03;;;;;;;19.53;9.50;;;;;;;22.69;66.15;100494.31;5035815;28;20043;-70
2023/06/26 03:57:29;;;;;;;18.90;8.93;;;;;;;22.64;65.81;100491.84;5044479;28;20017;-71
2023/06/26 03:59:54;;;;;;;18.63;8.43;;;;;;;22.63;66.32;100489.22;5036409;28;20307;-70
2023/06/26 04:02:19;;;;;;;14.67;8.23;;;;;;;22.62;66.36;100485.69;5036244;28;20036;-71
2023/06/26 04:04:45;;;;;;;17.20;7.83;;;;;;;22.65;66.14;100479.28;5036518;28;20131;-71
2023/06/26 04:07:10;;;;;;;18.13;8.63;;;;;;;22.68;65.89;100486.31;5036508;28;20394;-71
2023/06/26 04:09:35;;;;;;;16.05;7.70;;;;;;;22.72;65.79;100490.56;5036167;28;20502;-71
2023/06/26 04:12:01;;;;;;;17.27;7.57;;;;;;;22.71;65.81;100488.84;5044551;28;20492;-70
2023/06/26 04:14:26;;;;;;;15.83;7.77;;;;;;;22.72;65.27;100490.56;5036312;28;20025;-70
2023/06/26 04:16:52;;;;;;;21.67;8.77;;;;;;;22.68;65.64;100483.63;5036312;28;20030;-71
2023/06/26 04:19:17;;;;;;;19.73;8.40;;;;;;;22.67;66.20;100495.31;5036062;28;20024;-71
2023/06/26 04:21:43;;;;;;;18.67;7.63;;;;;;;22.64;65.90;100494.53;5018640;28;20045;-71
2023/06/26 04:24:09;;;;;;;16.70;7.88;;;;;;;22.61;65.62;100486.63;5036130;28;20056;-70
2023/06/26 04:26:34;;;;;;;17.00;8.13;;;;;;;22.58;65.84;100489.47;5036483;28;20028;-71
2023/06/26 04:29:00;;;;;;;20.57;8.07;;;;;;;22.55;66.25;100489.66;5018550;28;20033;-70
2023/06/26 04:31:25;;;;;;;18.20;7.47;;;;;;;22.55;65.98;100497.69;5036527;28;20510;-70
2023/06/26 04:33:52;;;;;;;19.13;8.00;;;;;;;22.57;66.06;100498.47;5036393;28;20017;-71
2023/06/26 04:36:18;;;;;;;15.13;7.82;;;;;;;22.61;65.87;100497.38;5036493;28;20045;-71
2023/06/26 04:38:43;;;;;;;19.10;7.97;;;;;;;22.58;65.84;100493.97;5018305;28;20040;-70
2023/06/26 04:41:09;;;;;;;16.17;7.73;;;;;;;22.56;66.13;100502.13;5036134;28;20036;-70
2023/06/26 04:43:34;;;;;;;16.30;7.88;;;;;;;22.56;66.09;100506.59;5035965;28;20097;-70
2023/06/26 04:46:00;;;;;;;16.53;8.13;;;;;;;22.56;66.29;100501.22;5036389;28;20025;-70
2023/06/26 04:48:27;;;;;;;20.13;8.50;;;;;;;22.55;66.13;100505.75;5018342;28;20053;-70
2023/06/26 04:50:53;;;;;;;19.55;8.65;;;;;;;22.57;66.23;100498.47;5036234;28;20021;-70
2023/06/26 04:53:23;;;;;;;18.58;7.97;;;;;;;22.61;66.13;100494.69;5035621;28;20034;-70
2023/06/26 04:55:52;;;;;;;18.20;7.93;;;;;;;22.61;66.25;100496.50;5043673;28;20028;-70
2023/06/26 04:58:18;;;;;;;19.37;7.87;;;;;;;22.68;65.93;100505.09;5023120;28;20028;-70
2023/06/26 05:00:44;;;;;;;16.63;7.97;;;;;;;22.74;65.87;100504.78;5021668;28;20025;-70
2023/06/26 05:03:12;;;;;;;19.90;8.27;;;;;;;22.75;65.79;100506.53;5039443;28;20021;-70
2023/06/26 05:05:37;;;;;;;17.88;8.80;;;;;;;22.71;66.18;100499.56;5039483;28;20021;-70
2023/06/26 05:08:20;;;;;;;20.87;8.23;;;;;;;22.67;66.12;100504.25;5039322;28;20140;-70
2023/06/26 05:10:46;;;;;;;19.40;8.43;;;;;;;22.68;66.14;100499.72;5024616;28;20092;-70
2023/06/26 05:13:14;;;;;;;18.90;8.05;;;;;;;22.69;66.34;100504.16;5021666;28;20477;-70
2023/06/26 05:15:40;;;;;;;13.47;6.90;;;;;;;22.72;66.03;100501.31;5039156;28;20052;-70
2023/06/26 05:18:06;;;;;;;15.60;7.05;;;;;;;22.77;65.83;100499.25;5038982;28;20125;-70
2023/06/26 05:20:31;;;;;;;12.37;5.93;;;;;;;22.79;65.50;100497.38;5039208;28;20057;-70
2023/06/26 05:22:58;;;;;;;13.80;5.85;;;;;;;22.80;65.48;100499.97;5038990;28;20029;-70
2023/06/26 05:25:24;;;;;;;17.83;6.30;;;;;;;22.78;65.33;100501.88;5038155;28;20061;-70
2023/06/26 05:27:50;;;;;;;12.20;5.72;;;;;;;22.77;65.49;100505.50;5038725;28;20075;-70
2023/06/26 05:30:16;;;;;;;11.27;5.80;;;;;;;22.81;65.38;100519.66;5039178;28;20037;-70
2023/06/26 05:32:46;;;;;;;12.90;6.25;;;;;;;22.78;64.97;100511.72;5038030;28;20107;-70
2023/06/26 05:35:13;;;;;;;14.35;5.80;;;;;;;22.74;65.24;100515.53;5038353;28;20021;-70
2023/06/26 05:37:39;;;;;;;10.90;5.50;;;;;;;22.69;65.00;100514.88;5038838;28;20026;-70
2023/06/26 05:40:05;;;;;;;13.23;5.75;;;;;;;22.68;65.09;100515.84;5038806;28;20104;-70
2023/06/26 05:42:31;;;;;;;11.70;5.18;;;;;;;22.65;64.93;100520.41;5038802;28;20034;-70
2023/06/26 05:44:56;;;;;;;11.93;5.40;;;;;;;22.65;65.11;100523.09;5038761;28;20025;-71
2023/06/26 05:47:23;;;;;;;10.98;5.18;;;;;;;22.64;65.23;100516.00;5038430;28;20062;-70
2023/06/26 05:49:49;;;;;;;14.33;5.20;;;;;;;22.64;65.22;100520.47;5038497;28;20068;-70
2023/06/26 05:52:14;;;;;;;13.90;5.20;;;;;;;22.64;64.95;100518.69;5038123;28;20041;-70
2023/06/26 05:54:40;;;;;;;10.70;5.03;;;;;;;22.65;64.87;100517.75;5038302;28;20033;-71
2023/06/26 05:57:06;;;;;;;12.07;5.13;;;;;;;22.65;64.73;100523.09;5046547;28;20049;-71
2023/06/26 05:59:32;;;;;;;12.23;5.33;;;;;;;22.67;65.03;100522.16;5037962;28;20025;-71
2023/06/26 06:01:58;;;;;;;14.37;5.60;;;;;;;22.67;65.01;100522.16;5016518;28;20359;-71
2023/06/26 06:04:23;;;;;;;10.65;5.32;;;;;;;22.70;65.08;100530.06;5017136;28;20137;-72
2023/06/26 06:06:48;;;;;;;11.17;4.87;;;;;;;22.70;64.94;100532.72;5015944;28;20022;-72
2023/06/26 06:09:14;;;;;;;10.77;5.40;;;;;;;22.72;64.68;100528.16;5029126;28;20028;-72
2023/06/26 06:11:39;;;;;;;12.15;5.75;;;;;;;22.70;64.86;100525.56;5036562;28;20093;-71
2023/06/26 06:14:05;;;;;;;18.00;5.53;;;;;;;22.70;64.83;100536.31;5037463;28;20380;-72
2023/06/26 06:16:30;;;;;;;11.53;5.43;;;;;;;22.70;64.90;100530.06;5017722;28;20066;-71
2023/06/26 06:18:56;;;;;;;13.43;5.87;;;;;;;22.67;65.05;100538.25;5036408;28;20474;-71
2023/06/26 06:21:21;;;;;;;11.63;5.17;;;;;;;22.66;64.97;100534.69;5016361;28;20021;-71
2023/06/26 06:23:46;;;;;;;11.30;5.43;;;;;;;22.66;64.90;100540.06;5018287;28;20025;-71
2023/06/26 06:26:12;;;;;;;12.87;5.77;;;;;;;22.67;65.18;100543.63;5038084;28;20511;-72
2023/06/26 06:28:38;;;;;;;10.70;5.40;;;;;;;22.68;65.16;100540.00;5037939;28;20394;-70
2023/06/26 06:31:04;;;;;;;13.18;5.30;;;;;;;22.71;65.11;100538.03;5037783;28;20025;-70
2023/06/26 06:33:29;;;;;;;9.70;5.13;;;;;;;22.78;65.05;100543.94;5037637;28;20025;-70
2023/06/26 06:35:54;;;;;;;14.47;6.10;;;;;;;22.81;65.02;100543.81;5037814;28;20029;-71
2023/06/26 06:38:20;;;;;;;12.38;5.80;;;;;;;22.83;64.89;100535.66;5037378;28;20056;-70
2023/06/26 06:40:45;;;;;;;11.27;5.53;;;;;;;22.87;64.86;100538.13;5037741;28;20440;-70
2023/06/26 06:43:10;;;;;;;13.87;6.40;;;;;;;22.93;64.61;100537.78;5019714;28;20524;-70
2023/06/26 06:45:37;;;;;;;16.13;5.20;;;;;;;22.98;64.46;100540.25;5037039;28;20033;-71
2023/06/26 06:48:03;;;;;;;13.48;5.72;;;;;;;22.98;64.37;100536.69;5037585;28;20046;-70
2023/06/26 06:50:29;;;;;;;16.38;5.60;;;;;;;23.04;64.36;100539.06;5019825;28;20560;-71
2023/06/26 06:52:54;;;;;;;11.10;5.57;;;;;;;23.04;64.39;100544.44;5037157;28;20071;-70
2023/06/26 06:55:19;;;;;;;15.43;5.87;;;;;;;23.04;64.40;100539.06;5039981;28;20619;-71
2023/06/26 06:57:45;;;;;;;13.27;5.13;;;;;;;23.07;64.27;100537.06;5043736;28;20401;-71
2023/06/26 07:00:13;;;;;;;14.20;5.35;;;;;;;23.13;63.99;100541.25;5037081;28;20402;-70
2023/06/26 07:02:41;;;;;;;10.25;4.88;;;;;;;23.12;63.97;100549.41;5037354;28;20078;-70
2023/06/26 07:05:07;;;;;;;12.15;5.35;;;;;;;23.13;63.93;100543.94;5037331;28;20029;-70
2023/06/26 07:07:34;;;;;;;11.80;4.70;;;;;;;23.16;63.67;100546.47;5019183;28;20163;-71
2023/06/26 07:10:02;;;;;;;13.10;5.63;;;;;;;23.20;63.86;100541.81;5040310;28;20524;-70
2023/06/26 07:12:28;;;;;;;13.25;4.53;;;;;;;23.20;63.66;100550.72;5042668;28;20021;-71
2023/06/26 07:14:54;;;;;;;11.45;4.53;;;;;;;23.19;63.36;100551.69;5037055;28;20638;-70
2023/06/26 07:17:20;;;;;;;11.63;4.80;;;;;;;23.20;63.70;100548.03;5036627;28;20036;-70
2023/06/26 07:19:46;;;;;;;11.40;5.20;;;;;;;23.18;63.67;100541.88;5036801;28;20071;-70
2023/06/26 07:22:12;;;;;;;12.27;4.65;;;;;;;23.18;63.68;100552.63;5036845;28;20029;-71
2023/06/26 07:24:37;;;;;;;14.53;5.10;;;;;;;23.19;63.84;100540.94;5036926;28;20025;-71
2023/06/26 07:27:03;;;;;;;11.60;4.23;;;;;;;23.27;63.54;100545.06;5036893;28;20021;-71
2023/06/26 07:29:28;;;;;;;12.65;4.57;;;;;;;23.31;63.48;100550.19;5037008;28;20021;-70
2023/06/26 07:31:53;;;;;;;10.53;4.67;;;;;;;23.29;63.50;100549.41;5036773;28;20037;-70
2023/06/26 07:34:19;;;;;;;11.13;4.43;;;;;;;23.28;63.58;100542.31;5019198;28;20030;-70
2023/06/26 07:36:44;;;;;;;13.20;4.83;;;;;;;23.38;63.54;100542.69;5036808;28;20502;-70
2023/06/26 07:39:10;;;;;;;13.70;4.85;;;;;;;23.48;63.12;100541.22;5036397;28;20036;-71
2023/06/26 07:41:36;;;;;;;14.07;4.70;;;;;;;23.50;63.23;100539.31;5036446;28;20044;-71
2023/06/26 07:44:01;;;;;;;17.53;4.83;;;;;;;23.57;63.48;100539.00;5036856;28;20429;-71
2023/06/26 07:46:26;;;;;;;13.17;4.77;;;;;;;23.61;62.95;100543.25;5036664;28;20457;-70
2023/06/26 07:48:52;;;;;;;16.23;4.60;;;;;;;23.66;62.81;100541.19;5036684;28;20764;-71
2023/06/26 07:51:17;;;;;;;11.30;4.33;;;;;;;23.68;62.72;100544.66;5036529;28;20025;-70
2023/06/26 07:53:43;;;;;;;11.40;4.47;;;;;;;23.74;62.74;100543.47;5036394;28;20021;-71
2023/06/26 07:56:08;;;;;;;13.88;5.13;;;;;;;23.82;62.78;100541.22;5027468;28;20021;-71
2023/06/26 07:58:34;;;;;;;13.53;4.63;;;;;;;23.92;62.47;100541.56;5036537;28;20029;-71
2023/06/26 08:00:59;;;;;;;12.70;4.90;;;;;;;24.04;62.04;100535.53;5036377;28;20386;-71
2023/06/26 08:03:24;;;;;;;11.00;4.33;;;;;;;24.12;61.49;100531.53;5036511;28;20052;-71
2023/06/26 08:05:50;;;;;;;11.23;4.40;;;;;;;24.18;61.52;100525.81;5036674;28;20545;-71
2023/06/26 08:08:15;;;;;;;15.35;4.70;;;;;;;24.19;61.22;100530.22;5019191;28;20018;-71
2023/06/26 08:10:40;;;;;;;9.20;4.23;;;;;;;24.21;61.59;100531.88;5045385;28;20082;-71
2023/06/26 08:13:06;;;;;;;12.03;4.23;;;;;;;24.27;61.19;100530.69;5036508;28;20028;-71
2023/06/26 08:15:31;;;;;;;10.27;4.57;;;;;;;24.36;61.02;100531.97;5036570;28;20036;-71
2023/06/26 08:17:57;;;;;;;12.20;4.20;;;;;;;24.46;60.88;100535.84;5036218;28;20667;-71
2023/06/26 08:20:22;;;;;;;11.70;4.43;;;;;;;24.49;60.51;100529.44;5036533;28;20089;-71
2023/06/26 08:22:50;;;;;;;14.43;4.40;;;;;;;24.48;60.17;100533.09;5036015;28;20053;-71
2023/06/26 08:25:16;;;;;;;10.13;3.92;;;;;;;24.50;60.33;100533.84;5018539;28;20048;-71
2023/06/26 08:27:41;;;;;;;15.67;4.90;;;;;;;24.61;60.29;100530.53;5005652;28;20083;-71
2023/06/26 08:30:07;;;;;;;8.93;4.05;;;;;;;24.71;59.92;100529.03;5036318;28;20104;-71
2023/06/26 08:32:32;;;;;;;10.00;4.03;;;;;;;24.76;59.75;100526.94;5040253;28;20385;-71
2023/06/26 08:34:57;;;;;;;10.63;4.30;;;;;;;24.79;59.23;100515.13;5040143;28;20144;-71
2023/06/26 08:37:23;;;;;;;9.80;3.97;;;;;;;24.88;59.39;100519.97;5039954;28;20033;-71
2023/06/26 08:39:49;;;;;;;11.07;4.18;;;;;;;24.93;58.77;100523.22;5039823;28;20025;-71
2023/06/26 08:42:14;;;;;;;13.70;4.00;;;;;;;24.99;58.65;100521.16;5039690;28;20025;-71
2023/06/26 08:44:40;;;;;;;13.82;4.40;;;;;;;25.07;58.77;100524.25;5040036;28;20025;-71
2023/06/26 08:47:05;;;;;;;11.63;4.10;;;;;;;25.15;58.23;100523.78;5039663;28;20112;-71
2023/06/26 08:49:46;;;;;;;11.57;4.50;;;;;;;25.15;57.77;100527.31;5039881;28;20032;-71
2023/06/26 08:52:37;;;;;;;11.48;4.43;;;;;;;25.21;57.88;100518.88;5028213;28;20021;-71
2023/06/26 08:55:09;;;;;;;13.43;4.03;;;;;;;25.33;57.86;100519.06;5030249;28;20124;-71
2023/06/26 08:57:36;;;;;;;10.45;3.95;;;;;;;25.45;57.63;100526.41;5047396;28;20036;-71
2023/06/26 09:00:02;;;;;;;11.30;4.20;;;;;;;25.58;57.48;100518.44;5039366;28;20037;-71
2023/06/26 09:02:28;;;;;;;10.65;4.35;;;;;;;25.62;56.92;100521.78;5039693;28;20026;-71
2023/06/26 09:04:54;;;;;;;10.73;4.15;;;;;;;25.49;56.91;100519.00;5039519;28;20033;-71
2023/06/26 09:07:19;;;;;;;11.43;4.30;;;;;;;25.37;56.86;100526.00;5039405;28;20029;-71
2023/06/26 09:09:45;;;;;;;12.47;4.83;;;;;;;25.27;56.71;100525.69;5040274;28;20025;-71
2023/06/26 09:12:11;;;;;;;10.93;4.22;;;;;;;25.19;56.60;100531.56;5046637;28;20482;-71
2023/06/26 09:14:38;;;;;;;12.00;4.20;;;;;;;25.11;57.06;100533.00;5021589;28;20033;-71
2023/06/26 09:17:03;;;;;;;13.30;4.38;;;;;;;25.06;57.09;100534.13;5039074;28;20036;-71
2023/06/26 09:19:28;;;;;;;10.75;4.10;;;;;;;25.05;56.96;100531.56;5039199;28;20033;-71
2023/06/26 09:21:55;;;;;;;10.40;3.83;;;;;;;25.02;57.33;100531.75;5039311;28;20036;-71
2023/06/26 09:24:21;;;;;;;13.40;4.00;;;;;;;25.03;57.26;100528.09;5038751;28;20020;-71
2023/06/26 09:26:47;;;;;;;8.47;3.60;;;;;;;25.06;57.07;100533.28;5021353;28;20104;-71
2023/06/26 09:29:13;;;;;;;9.55;3.60;;;;;;;25.11;56.68;100536.56;5039001;28;20017;-71
2023/06/26 09:31:40;;;;;;;11.85;3.78;;;;;;;25.16;56.53;100534.44;5038826;28;20596;-71
2023/06/26 09:34:06;;;;;;;10.25;3.95;;;;;;;25.17;56.95;100536.16;5038777;28;20035;-70
2023/06/26 09:36:32;;;;;;;10.00;3.90;;;;;;;25.22;56.69;100536.78;5039174;28;20037;-71
2023/06/26 09:39:02;;;;;;;12.93;4.90;;;;;;;25.27;56.98;100535.63;5038611;28;20031;-71
2023/06/26 09:41:28;;;;;;;13.38;4.07;;;;;;;25.33;56.46;100529.84;5038584;28;20029;-71
2023/06/26 09:43:55;;;;;;;10.63;4.13;;;;;;;25.45;56.58;100529.09;5038710;28;20029;-71
2023/06/26 09:46:27;;;;;;;12.20;4.28;;;;;;;25.57;56.08;100529.31;5038719;28;20021;-71
2023/06/26 09:49:05;;;;;;;10.65;4.10;;;;;;;25.72;55.54;100520.25;5026285;28;20645;-70
2023/06/26 09:51:34;;;;;;;10.10;4.03;;;;;;;25.72;55.41;100528.34;5038584;28;20025;-70
2023/06/26 09:54:00;;;;;;;12.93;4.60;;;;;;;25.68;55.83;100529.47;5020573;28;20013;-71
2023/06/26 09:56:27;;;;;;;13.50;5.03;;;;;;;25.58;55.61;100522.94;5047205;28;20033;-71
2023/06/26 09:58:56;;;;;;;8.85;4.07;;;;;;;25.54;55.94;100526.81;5038447;28;20084;-70
2023/06/26 10:01:21;;;;;;;11.30;4.75;;;;;;;25.53;56.32;100533.16;5038129;28;20026;-70
2023/06/26 10:03:47;;;;;;;11.73;4.40;;;;;;;25.59;55.78;100522.88;5038539;28;20029;-70
2023/06/26 10:06:13;;;;;;;12.07;4.63;;;;;;;25.59;55.50;100521.97;5020469;28;20025;-71
2023/06/26 10:08:40;;;;;;;13.88;5.00;;;;;;;25.53;55.50;100525.94;5038071;28;20502;-70
2023/06/26 10:11:11;;;;;;;12.10;4.72;;;;;;;25.47;56.14;100532.59;5046907;28;20854;-71
2023/06/26 10:13:41;;;;;;;12.68;5.20;;;;;;;25.40;56.54;100541.97;5037831;28;20021;-71
2023/06/26 10:16:08;;;;;;;12.60;5.03;;;;;;;25.40;56.81;100536.59;5038194;28;20108;-71
2023/06/26 10:18:38;;;;;;;13.20;4.63;;;;;;;25.46;56.64;100536.22;5038178;28;20033;-71
2023/06/26 10:21:06;;;;;;;10.95;4.72;;;;;;;25.56;55.74;100530.28;5037949;28;20060;-71
2023/06/26 10:23:31;;;;;;;14.65;5.00;;;;;;;25.68;55.71;100529.47;5037940;28;20025;-70
2023/06/26 10:26:00;;;;;;;10.03;4.03;;;;;;;25.84;55.29;100536.59;5038220;28;20104;-71
2023/06/26 10:28:28;;;;;;;14.13;4.85;;;;;;;26.14;55.14;100530.16;5038018;28;20128;-70
2023/06/26 10:30:55;;;;;;;11.95;4.70;;;;;;;26.48;54.68;100528.84;5037669;28;20445;-71
2023/06/26 10:33:22;;;;;;;10.90;4.35;;;;;;;26.90;53.89;100530.59;5037865;28;20519;-71
2023/06/26 10:35:47;;;;;;;9.83;4.60;;;;;;;27.19;52.84;100528.56;5037868;28;20029;-71
2023/06/26 10:38:13;;;;;;;13.20;4.15;;;;;;;27.28;52.12;100524.38;5037658;28;20037;-71
2023/06/26 10:40:46;;;;;;;9.80;3.93;;;;;;;27.21;52.01;100531.16;5037987;28;20070;-70
2023/06/26 10:43:15;;;;;;;12.25;4.97;;;;;;;27.16;51.65;100533.31;5037397;28;20100;-71
2023/06/26 10:45:52;;;;;;;13.00;4.50;;;;;;;27.06;52.01;100535.81;5037792;28;20569;-71
2023/06/26 10:48:17;;;;;;;12.00;4.47;;;;;;;26.97;52.29;100529.19;5037459;28;20429;-71
2023/06/26 10:50:44;;;;;;;12.50;4.43;;;;;;;26.92;52.13;100528.66;5037594;28;20033;-71
2023/06/26 10:53:34;;;;;;;12.45;5.25;;;;;;;26.91;52.24;100541.31;5036560;28;20025;-70
2023/06/26 10:56:01;;;;;;;15.77;5.75;;;;;;;26.76;52.91;100542.31;5038618;28;20556;-71
2023/06/26 10:58:40;;;;;;;12.07;5.17;;;;;;;26.55;53.25;100545.50;5037600;28;20033;-71
2023/06/26 11:01:11;;;;;;;13.63;4.90;;;;;;;26.40;53.50;100550.09;5037127;28;20025;-70
2023/06/26 11:03:38;;;;;;;10.77;5.00;;;;;;;26.33;53.76;100540.69;5037628;28;20121;-71
2023/06/26 11:06:22;;;;;;;9.63;4.57;;;;;;;26.23;53.91;100546.66;5037397;28;20033;-70
2023/06/26 11:09:08;;;;;;;11.52;4.85;;;;;;;26.17;53.64;100543.53;5037124;28;20052;-71
2023/06/26 11:11:57;;;;;;;13.47;5.10;;;;;;;26.11;53.66;100541.16;5042545;28;20428;-71
2023/06/26 11:14:23;;;;;;;10.43;4.60;;;;;;;26.09;54.23;100541.28;5019426;28;20116;-71
2023/06/26 11:16:49;;;;;;;14.43;5.00;;;;;;;26.06;53.95;100539.66;5037164;28;20085;-71